Ta-fan-lieh, Taiwan
Current Conditions -  °F | °C
As of 5:00 AM on Sunday 26 Oct 2014 (Local Time) from RCKH Reporting Station
Haze Haze  
Wind Chill: 75°   Ceiling: 9000
Heat Index: 75°   Visibility: 2.5mi
Dew Point: 72°   Wind: 5mph
Humidity: 89%   Direction: 60°ENE
Pressure: 30"   Gusts: NA
Location:  21.97°N, 120.77°E
Report Text: RCKH 252100Z 06004KT 4000 BR FEW015 BKN090 24/22 Q1016 TEMPO3000 BR RMK A3001
Loading
Personal Weather Stations






























Interactive Weather Map
Tropical Storm Tracking
New forecast layout! Learn more

10-Day Weather Forecast

Advertisements
Track Severe Weather on mobile